createdAt,value
2023-03-06T00:01:40.394Z,8.70
2023-03-06T00:04:08.387Z,8.65
2023-03-06T00:06:34.887Z,9.25
2023-03-06T00:09:01.360Z,10.23
2023-03-06T00:11:27.794Z,10.70
2023-03-06T00:13:54.242Z,9.85
2023-03-06T00:16:20.714Z,9.35
2023-03-06T00:18:47.764Z,9.32
2023-03-06T00:21:14.210Z,9.65
2023-03-06T00:23:41.316Z,8.88
2023-03-06T00:26:08.873Z,8.25
2023-03-06T00:28:35.781Z,9.20
2023-03-06T00:31:03.179Z,9.43
2023-03-06T00:33:30.129Z,8.13
2023-03-06T00:35:56.686Z,8.38
2023-03-06T00:38:23.219Z,8.35
2023-03-06T00:40:49.736Z,8.18
2023-03-06T00:43:16.187Z,8.52
2023-03-06T00:45:42.655Z,8.98
2023-03-06T00:48:09.205Z,8.40
2023-03-06T00:50:36.236Z,8.20
2023-03-06T00:53:02.674Z,8.52
2023-03-06T00:55:30.808Z,8.40
2023-03-06T00:57:57.266Z,8.35
2023-03-06T01:00:24.353Z,7.80
2023-03-06T01:02:50.868Z,8.57
2023-03-06T01:05:17.345Z,8.80
2023-03-06T01:07:43.894Z,8.63
2023-03-06T01:10:11.220Z,8.32
2023-03-06T01:12:37.704Z,8.70
2023-03-06T01:15:05.387Z,8.32
2023-03-06T01:17:31.859Z,8.40
2023-03-06T01:19:58.654Z,8.35
2023-03-06T01:22:25.179Z,8.10
2023-03-06T01:24:51.603Z,8.07
2023-03-06T01:27:18.159Z,8.75
2023-03-06T01:29:44.621Z,8.57
2023-03-06T01:32:11.115Z,8.68
2023-03-06T01:34:37.595Z,8.55
2023-03-06T01:37:04.066Z,8.38
2023-03-06T01:39:31.553Z,8.05
2023-03-06T01:41:58.085Z,7.95
2023-03-06T01:44:24.607Z,7.60
2023-03-06T01:46:51.096Z,8.25
2023-03-06T01:49:25.056Z,8.18
2023-03-06T01:52:07.012Z,8.50
2023-03-06T01:54:37.238Z,7.85
2023-03-06T01:57:07.633Z,7.90
2023-03-06T01:59:35.275Z,7.90
2023-03-06T02:02:02.726Z,7.15
2023-03-06T02:04:29.927Z,7.68
2023-03-06T02:06:59.268Z,8.25
2023-03-06T02:09:29.910Z,7.72
2023-03-06T02:11:56.340Z,8.30
2023-03-06T02:14:23.155Z,8.00
2023-03-06T02:16:49.648Z,7.47
2023-03-06T02:19:33.540Z,7.88
2023-03-06T02:22:00.161Z,7.47
2023-03-06T02:24:39.000Z,8.43
2023-03-06T02:27:06.938Z,8.10
2023-03-06T02:29:33.660Z,7.18
2023-03-06T02:32:00.200Z,7.72
2023-03-06T02:34:26.612Z,7.65
2023-03-06T02:37:00.898Z,7.95
2023-03-06T02:39:30.043Z,8.02
2023-03-06T02:41:56.581Z,8.00
2023-03-06T02:44:23.931Z,7.68
2023-03-06T02:46:50.401Z,7.90
2023-03-06T02:49:16.839Z,7.78
2023-03-06T02:51:43.265Z,7.22
2023-03-06T02:54:11.006Z,7.68
2023-03-06T02:56:37.484Z,7.00
2023-03-06T02:59:03.935Z,8.00
2023-03-06T03:01:30.806Z,7.60
2023-03-06T03:03:57.294Z,8.05
2023-03-06T03:06:23.802Z,8.38
2023-03-06T03:08:50.244Z,7.93
2023-03-06T03:11:16.682Z,7.90
2023-03-06T03:13:43.235Z,7.60
2023-03-06T03:16:13.982Z,8.18
2023-03-06T03:18:47.961Z,7.15
2023-03-06T03:21:14.978Z,8.05
2023-03-06T03:23:41.569Z,7.70
2023-03-06T03:26:10.597Z,7.65
2023-03-06T03:28:37.424Z,7.53
2023-03-06T03:31:05.289Z,8.40
2023-03-06T03:33:32.422Z,7.93
2023-03-06T03:36:00.218Z,7.68
2023-03-06T03:38:26.999Z,7.25
2023-03-06T03:40:53.538Z,7.47
2023-03-06T03:43:19.993Z,8.05
2023-03-06T03:45:46.398Z,7.57
2023-03-06T03:48:12.885Z,7.80
2023-03-06T03:50:39.329Z,7.65
2023-03-06T03:53:05.878Z,8.00
2023-03-06T03:55:32.355Z,8.63
2023-03-06T03:57:58.847Z,7.93
2023-03-06T04:00:25.311Z,7.82
2023-03-06T04:02:51.759Z,7.50
2023-03-06T04:05:18.445Z,7.80
2023-03-06T04:07:44.914Z,7.95
2023-03-06T04:10:12.553Z,7.60
2023-03-06T04:12:39.278Z,7.30
2023-03-06T04:15:07.663Z,7.15
2023-03-06T04:17:34.969Z,7.55
2023-03-06T04:20:02.642Z,7.45
2023-03-06T04:22:29.219Z,7.30
2023-03-06T04:24:55.691Z,7.82
2023-03-06T04:27:22.165Z,7.10
2023-03-06T04:29:48.761Z,8.00
2023-03-06T04:32:15.417Z,7.75
2023-03-06T04:34:42.135Z,7.72
2023-03-06T04:37:18.372Z,7.38
2023-03-06T04:39:44.849Z,7.32
2023-03-06T04:42:11.548Z,7.85
2023-03-06T04:44:38.080Z,7.40
2023-03-06T04:47:04.791Z,7.72
2023-03-06T04:49:31.304Z,8.05
2023-03-06T04:51:57.981Z,8.80
2023-03-06T04:54:24.528Z,8.15
2023-03-06T04:56:50.932Z,8.65
2023-03-06T04:59:17.392Z,8.25
2023-03-06T05:01:43.840Z,9.32
2023-03-06T05:04:10.312Z,11.07
2023-03-06T05:06:36.748Z,10.65
2023-03-06T05:09:03.284Z,10.35
2023-03-06T05:11:29.786Z,9.60
2023-03-06T05:13:56.226Z,9.02
2023-03-06T05:16:22.692Z,8.75
2023-03-06T05:18:50.668Z,8.70
2023-03-06T05:21:17.362Z,9.70
2023-03-06T05:23:43.877Z,9.45
2023-03-06T05:26:12.110Z,8.02
2023-03-06T05:28:38.780Z,7.85
2023-03-06T05:31:05.693Z,8.43
2023-03-06T05:33:33.540Z,7.55
2023-03-06T05:36:00.049Z,8.82
2023-03-06T05:38:26.868Z,9.05
2023-03-06T05:40:53.438Z,8.98
2023-03-06T05:43:20.063Z,9.23
2023-03-06T05:45:46.541Z,8.95
2023-03-06T05:48:13.722Z,8.98
2023-03-06T05:50:40.328Z,8.55
2023-03-06T05:53:07.934Z,8.90
2023-03-06T05:55:34.377Z,7.80
2023-03-06T05:58:00.790Z,8.70
2023-03-06T06:00:27.313Z,8.00
2023-03-06T06:02:54.279Z,8.32
2023-03-06T06:05:20.807Z,8.95
2023-03-06T06:07:47.438Z,8.50
2023-03-06T06:10:14.098Z,8.70
2023-03-06T06:12:43.141Z,9.10
2023-03-06T06:15:10.024Z,9.60
2023-03-06T06:17:36.486Z,9.88
2023-03-06T06:20:03.483Z,9.75
2023-03-06T06:22:30.001Z,11.45
2023-03-06T06:24:56.459Z,11.25
2023-03-06T06:27:22.928Z,11.57
2023-03-06T06:29:52.724Z,11.63
2023-03-06T06:32:19.572Z,10.68
2023-03-06T06:34:46.029Z,10.48
2023-03-06T06:37:12.534Z,11.25
2023-03-06T06:39:38.994Z,11.32
2023-03-06T06:42:26.555Z,10.43
2023-03-06T06:44:52.549Z,10.10
2023-03-06T06:47:22.732Z,10.60
2023-03-06T06:49:52.714Z,10.23
2023-03-06T06:52:19.402Z,9.82
2023-03-06T06:54:45.937Z,10.15
2023-03-06T06:57:13.250Z,10.57
2023-03-06T06:59:39.716Z,10.50
2023-03-06T07:02:06.318Z,10.25
2023-03-06T07:04:33.024Z,11.00
2023-03-06T07:06:59.891Z,10.10
2023-03-06T07:09:26.555Z,10.57
2023-03-06T07:11:53.115Z,10.00
2023-03-06T07:14:19.573Z,10.90
2023-03-06T07:16:46.024Z,10.40
2023-03-06T07:19:12.483Z,11.05
2023-03-06T07:21:38.941Z,10.68
2023-03-06T07:24:05.622Z,11.20
2023-03-06T07:26:34.511Z,10.68
2023-03-06T07:29:02.272Z,11.55
2023-03-06T07:31:29.014Z,11.38
2023-03-06T07:33:56.008Z,11.20
2023-03-06T07:36:23.525Z,12.57
2023-03-06T07:38:50.269Z,11.25
2023-03-06T07:41:20.390Z,11.38
2023-03-06T07:43:48.664Z,11.05
2023-03-06T07:46:15.268Z,10.75
2023-03-06T07:48:42.411Z,12.45
2023-03-06T07:51:15.602Z,13.13
2023-03-06T07:53:42.295Z,13.45
2023-03-06T07:56:09.471Z,11.30
2023-03-06T07:58:37.672Z,11.60
2023-03-06T08:01:06.603Z,11.68
2023-03-06T08:03:33.733Z,11.95
2023-03-06T08:06:12.087Z,11.15
2023-03-06T08:08:40.209Z,11.57
2023-03-06T08:11:08.076Z,11.35
2023-03-06T08:13:35.255Z,12.25
2023-03-06T08:16:02.285Z,11.85
2023-03-06T08:18:28.926Z,11.48
2023-03-06T08:21:06.395Z,12.30
2023-03-06T08:23:33.803Z,12.20
2023-03-06T08:26:01.949Z,12.07
2023-03-06T08:28:28.888Z,12.73
2023-03-06T08:30:56.117Z,13.88
2023-03-06T08:33:23.129Z,13.38
2023-03-06T08:35:49.821Z,14.23
2023-03-06T08:38:16.398Z,15.18
2023-03-06T08:40:42.859Z,14.77
2023-03-06T08:43:11.825Z,12.90
2023-03-06T08:45:40.280Z,13.32
2023-03-06T08:48:06.745Z,13.38
2023-03-06T08:50:33.287Z,13.88
2023-03-06T08:52:59.865Z,13.35
2023-03-06T08:55:28.054Z,14.77
2023-03-06T08:57:54.581Z,14.75
2023-03-06T09:00:21.165Z,14.00
2023-03-06T09:02:47.597Z,14.50
2023-03-06T09:05:14.128Z,14.15
2023-03-06T09:07:40.585Z,13.85
2023-03-06T09:10:08.388Z,13.13
2023-03-06T09:12:47.476Z,14.48
2023-03-06T09:15:16.306Z,13.52
2023-03-06T09:17:43.113Z,13.88
2023-03-06T09:20:12.468Z,14.60
2023-03-06T09:22:38.950Z,14.30
2023-03-06T09:25:06.282Z,16.33
2023-03-06T09:27:33.099Z,17.20
2023-03-06T09:29:59.578Z,16.15
2023-03-06T09:32:26.166Z,17.58
2023-03-06T09:34:52.663Z,18.67
2023-03-06T09:37:19.190Z,16.02
2023-03-06T09:39:45.729Z,15.65
2023-03-06T09:42:23.665Z,14.93
2023-03-06T09:44:55.657Z,13.10
2023-03-06T09:47:28.644Z,12.70
2023-03-06T09:49:58.283Z,13.23
2023-03-06T09:53:02.700Z,12.68
2023-03-06T09:55:31.619Z,11.93
2023-03-06T09:58:09.087Z,13.30
2023-03-06T10:00:39.977Z,12.65
2023-03-06T10:03:45.373Z,12.60
2023-03-06T10:06:18.369Z,12.93
2023-03-06T10:09:15.508Z,13.75
2023-03-06T10:11:43.584Z,13.88
2023-03-06T10:14:38.246Z,12.57
2023-03-06T10:17:06.153Z,12.85
2023-03-06T10:19:37.892Z,14.47
2023-03-06T10:22:06.828Z,13.70
2023-03-06T10:24:47.887Z,13.18
2023-03-06T10:27:34.842Z,13.40
2023-03-06T10:30:13.831Z,13.63
2023-03-06T10:32:52.409Z,12.48
2023-03-06T10:35:22.467Z,14.45
2023-03-06T10:37:49.273Z,14.18
2023-03-06T10:40:21.696Z,13.90
2023-03-06T10:42:49.538Z,12.68
2023-03-06T10:45:18.731Z,14.60
2023-03-06T10:47:46.126Z,13.30
2023-03-06T10:50:22.547Z,14.32
2023-03-06T10:53:10.544Z,13.68
2023-03-06T10:55:37.786Z,14.80
2023-03-06T10:58:19.354Z,14.88
2023-03-06T11:00:46.092Z,14.57
2023-03-06T11:03:21.216Z,14.88
2023-03-06T11:06:01.479Z,13.90
2023-03-06T11:08:29.226Z,14.85
2023-03-06T11:11:03.275Z,14.10
2023-03-06T11:13:32.936Z,13.75
2023-03-06T11:16:23.805Z,14.82
2023-03-06T11:18:56.097Z,14.38
2023-03-06T11:21:33.637Z,14.25
2023-03-06T11:24:19.390Z,12.52
2023-03-06T11:26:51.132Z,13.25
2023-03-06T11:29:33.783Z,13.48
2023-03-06T11:32:11.181Z,13.50
2023-03-06T11:34:50.946Z,12.05
2023-03-06T11:37:37.548Z,13.32
2023-03-06T11:40:10.505Z,14.18
2023-03-06T11:42:49.182Z,13.27
2023-03-06T11:45:26.658Z,13.13
2023-03-06T11:48:01.581Z,14.88
2023-03-06T11:50:31.740Z,21.10
2023-03-06T11:53:01.488Z,14.55
2023-03-06T11:55:42.955Z,13.50
2023-03-06T11:58:43.482Z,13.70
2023-03-06T12:01:39.638Z,12.63
2023-03-06T12:04:26.197Z,12.52
2023-03-06T12:07:11.437Z,12.88
2023-03-06T12:09:49.877Z,13.10
2023-03-06T12:12:19.384Z,12.68
2023-03-06T12:15:11.481Z,13.38
2023-03-06T12:17:56.085Z,13.52
2023-03-06T12:20:34.709Z,12.70
2023-03-06T12:23:19.631Z,13.70
2023-03-06T12:26:34.124Z,13.65
2023-03-06T12:29:09.954Z,14.13
2023-03-06T12:32:00.211Z,12.52
2023-03-06T12:34:37.819Z,14.30
2023-03-06T12:37:19.581Z,13.05
2023-03-06T12:39:48.397Z,14.50
2023-03-06T12:42:22.884Z,14.45
2023-03-06T12:44:52.750Z,16.45
2023-03-06T12:47:21.388Z,14.88
2023-03-06T12:50:04.537Z,18.30
2023-03-06T12:52:32.710Z,17.70
2023-03-06T12:55:00.319Z,17.27
2023-03-06T12:57:26.921Z,16.40
2023-03-06T12:59:54.655Z,15.60
2023-03-06T13:02:43.729Z,15.68
2023-03-06T13:05:33.956Z,14.32
2023-03-06T13:08:09.903Z,13.82
2023-03-06T13:10:38.531Z,14.45
2023-03-06T13:13:34.530Z,15.02
2023-03-06T13:16:04.008Z,14.98
2023-03-06T13:18:47.543Z,13.98
2023-03-06T13:21:43.320Z,13.88
2023-03-06T13:24:32.908Z,12.52
2023-03-06T13:27:10.909Z,11.55
2023-03-06T13:29:37.389Z,12.77
2023-03-06T13:32:03.791Z,11.80
2023-03-06T13:34:48.399Z,12.45
2023-03-06T13:37:17.614Z,13.70
2023-03-06T13:39:59.072Z,13.15
2023-03-06T13:42:29.293Z,12.32
2023-03-06T13:44:57.582Z,12.70
2023-03-06T13:47:39.771Z,12.93
2023-03-06T13:50:41.850Z,13.60
2023-03-06T13:53:29.644Z,16.25
2023-03-06T13:55:58.647Z,18.10
2023-03-06T13:58:28.153Z,17.67
2023-03-06T14:01:17.034Z,16.35
2023-03-06T14:03:54.997Z,13.23
2023-03-06T14:06:42.208Z,14.82
2023-03-06T14:09:19.081Z,16.40
2023-03-06T14:11:50.900Z,13.65
2023-03-06T14:14:17.632Z,15.20
2023-03-06T14:16:50.537Z,18.73
2023-03-06T14:19:18.070Z,16.10
2023-03-06T14:21:50.087Z,14.25
2023-03-06T14:24:20.866Z,14.63
2023-03-06T14:26:51.163Z,14.20
2023-03-06T14:29:23.058Z,33.08
2023-03-06T14:31:51.379Z,16.73
2023-03-06T14:34:20.316Z,23.10
2023-03-06T14:36:51.461Z,16.63
2023-03-06T14:39:20.789Z,19.08
2023-03-06T14:41:47.365Z,18.30
2023-03-06T14:44:22.269Z,15.45
2023-03-06T14:46:51.470Z,14.18
2023-03-06T14:49:19.996Z,15.07
2023-03-06T14:51:49.229Z,15.07
2023-03-06T14:54:19.475Z,15.27
2023-03-06T14:56:49.793Z,15.82
2023-03-06T14:59:25.081Z,16.52
2023-03-06T15:01:56.185Z,15.38
2023-03-06T15:04:25.407Z,14.82
2023-03-06T15:06:52.771Z,15.50
2023-03-06T15:09:27.103Z,15.05
2023-03-06T15:11:56.564Z,14.05
2023-03-06T15:14:42.047Z,14.70
2023-03-06T15:17:15.931Z,15.43
2023-03-06T15:19:42.605Z,15.43
2023-03-06T15:22:30.945Z,14.57
2023-03-06T15:25:09.943Z,14.18
2023-03-06T15:27:36.399Z,14.43
2023-03-06T15:30:21.851Z,15.60
2023-03-06T15:32:48.275Z,14.73
2023-03-06T15:35:31.871Z,13.00
2023-03-06T15:37:59.205Z,15.10
2023-03-06T15:40:28.587Z,14.55
2023-03-06T15:42:55.434Z,14.40
2023-03-06T15:45:23.981Z,14.60
2023-03-06T15:47:51.944Z,15.38
2023-03-06T15:50:18.326Z,14.15
2023-03-06T15:52:45.511Z,14.68
2023-03-06T15:55:13.397Z,13.85
2023-03-06T15:57:56.785Z,15.65
2023-03-06T16:00:28.616Z,13.30
2023-03-06T16:02:56.783Z,13.10
2023-03-06T16:05:23.865Z,14.73
2023-03-06T16:07:50.475Z,14.35
2023-03-06T16:10:20.060Z,14.15
2023-03-06T16:12:49.449Z,13.48
2023-03-06T16:15:17.858Z,14.68
2023-03-06T16:17:44.318Z,14.77
2023-03-06T16:20:15.250Z,15.40
2023-03-06T16:22:41.677Z,17.52
2023-03-06T16:25:08.795Z,15.30
2023-03-06T16:27:35.238Z,16.05
2023-03-06T16:30:01.981Z,18.88
2023-03-06T16:32:28.903Z,17.67
2023-03-06T16:34:55.375Z,17.52
2023-03-06T16:37:21.836Z,17.00
2023-03-06T16:39:48.333Z,17.25
2023-03-06T16:42:16.910Z,19.38
2023-03-06T16:44:43.353Z,16.45
2023-03-06T16:47:11.864Z,19.27
2023-03-06T16:49:38.374Z,17.63
2023-03-06T16:52:05.012Z,15.85
2023-03-06T16:54:31.504Z,17.48
2023-03-06T16:56:58.068Z,16.25
2023-03-06T16:59:25.214Z,14.95
2023-03-06T17:01:51.910Z,15.85
2023-03-06T17:04:18.374Z,18.70
2023-03-06T17:06:44.925Z,19.13
2023-03-06T17:09:11.532Z,19.00
2023-03-06T17:11:43.281Z,18.55
2023-03-06T17:14:09.716Z,20.42
2023-03-06T17:16:40.176Z,19.75
2023-03-06T17:19:07.173Z,17.65
2023-03-06T17:21:35.359Z,16.60
2023-03-06T17:24:03.745Z,17.45
2023-03-06T17:26:30.580Z,20.75
2023-03-06T17:28:57.132Z,17.85
2023-03-06T17:31:26.658Z,16.05
2023-03-06T17:33:57.145Z,14.48
2023-03-06T17:36:23.697Z,14.18
2023-03-06T17:38:50.226Z,13.77
2023-03-06T17:41:16.726Z,14.50
2023-03-06T17:43:46.129Z,13.32
2023-03-06T17:46:13.459Z,14.25
2023-03-06T17:48:40.325Z,14.35
2023-03-06T17:51:07.489Z,13.93
2023-03-06T17:53:33.969Z,15.13
2023-03-06T17:56:03.142Z,15.82
2023-03-06T17:58:31.115Z,13.75
2023-03-06T18:00:57.793Z,14.43
2023-03-06T18:03:24.259Z,14.70
2023-03-06T18:06:00.486Z,14.20
2023-03-06T18:08:26.911Z,14.40
2023-03-06T18:10:59.397Z,14.20
2023-03-06T18:13:25.894Z,14.50
2023-03-06T18:15:52.351Z,14.75
2023-03-06T18:18:18.813Z,14.63
2023-03-06T18:20:47.192Z,13.93
2023-03-06T18:23:13.907Z,14.93
2023-03-06T18:25:40.356Z,15.38
2023-03-06T18:28:07.108Z,15.50
2023-03-06T18:30:43.399Z,15.40
2023-03-06T18:33:10.413Z,14.70
2023-03-06T18:35:36.914Z,14.55
2023-03-06T18:38:03.505Z,14.88
2023-03-06T18:40:30.205Z,14.40
2023-03-06T18:42:56.673Z,14.55
2023-03-06T18:45:23.274Z,16.52
2023-03-06T18:47:49.797Z,17.70
2023-03-06T18:50:17.625Z,16.35
2023-03-06T18:52:44.484Z,16.08
2023-03-06T18:55:11.235Z,16.00
2023-03-06T18:57:38.169Z,15.50
2023-03-06T19:00:06.440Z,15.98
2023-03-06T19:02:32.928Z,15.57
2023-03-06T19:04:59.450Z,16.15
2023-03-06T19:07:25.883Z,16.80
2023-03-06T19:09:52.418Z,15.98
2023-03-06T19:12:18.863Z,16.60
2023-03-06T19:14:45.344Z,16.33
2023-03-06T19:17:12.127Z,16.40
2023-03-06T19:19:38.599Z,16.67
2023-03-06T19:22:05.078Z,16.50
2023-03-06T19:24:31.575Z,17.15
2023-03-06T19:26:58.036Z,16.33
2023-03-06T19:29:24.510Z,16.77
2023-03-06T19:31:52.374Z,16.35
2023-03-06T19:34:18.871Z,16.67
2023-03-06T19:36:45.341Z,18.08
2023-03-06T19:39:11.902Z,18.00
2023-03-06T19:41:38.413Z,17.75
2023-03-06T19:44:05.925Z,18.27
2023-03-06T19:46:32.877Z,18.17
2023-03-06T19:49:01.492Z,19.23
2023-03-06T19:51:28.349Z,17.95
2023-03-06T19:53:56.108Z,18.17
2023-03-06T19:56:26.023Z,19.48
2023-03-06T19:58:52.791Z,17.38
2023-03-06T20:01:20.392Z,19.02
2023-03-06T20:03:46.935Z,19.52
2023-03-06T20:06:15.681Z,20.27
2023-03-06T20:08:43.257Z,18.58
2023-03-06T20:11:21.120Z,19.17
2023-03-06T20:13:48.434Z,19.45
2023-03-06T20:16:16.130Z,20.10
2023-03-06T20:18:42.986Z,19.10
2023-03-06T20:21:09.773Z,19.48
2023-03-06T20:23:36.346Z,20.25
2023-03-06T20:26:09.443Z,19.52
2023-03-06T20:28:36.675Z,20.48
2023-03-06T20:31:11.195Z,20.85
2023-03-06T20:33:37.675Z,20.20
2023-03-06T20:36:04.569Z,19.38
2023-03-06T20:38:31.049Z,19.58
2023-03-06T20:40:58.798Z,20.30
2023-03-06T20:43:25.217Z,19.45
2023-03-06T20:45:59.941Z,19.30
2023-03-06T20:48:26.424Z,19.63
2023-03-06T20:51:03.961Z,19.40
2023-03-06T20:53:30.957Z,19.05
2023-03-06T20:55:57.619Z,20.45
2023-03-06T20:58:32.671Z,20.10
2023-03-06T21:01:01.383Z,19.10
2023-03-06T21:03:29.204Z,20.33
2023-03-06T21:05:55.977Z,19.52
2023-03-06T21:08:22.418Z,20.42
2023-03-06T21:10:49.217Z,19.85
2023-03-06T21:13:15.649Z,20.35
2023-03-06T21:15:43.095Z,20.35
2023-03-06T21:18:12.082Z,18.50
2023-03-06T21:20:39.765Z,20.17
2023-03-06T21:23:06.982Z,18.98
2023-03-06T21:25:36.640Z,19.58
2023-03-06T21:28:03.141Z,18.98
2023-03-06T21:30:30.195Z,19.25
2023-03-06T21:32:56.686Z,20.95
2023-03-06T21:35:23.151Z,18.92
2023-03-06T21:37:49.648Z,18.60
2023-03-06T21:40:16.389Z,18.85
2023-03-06T21:42:42.848Z,19.25
2023-03-06T21:45:09.682Z,19.65
2023-03-06T21:47:41.128Z,20.17
2023-03-06T21:50:09.771Z,21.52
2023-03-06T21:52:36.244Z,20.90
2023-03-06T21:55:03.014Z,20.15
2023-03-06T21:57:29.894Z,21.17
2023-03-06T21:59:56.348Z,20.80
2023-03-06T22:02:25.632Z,19.33
2023-03-06T22:04:52.789Z,20.08
2023-03-06T22:07:19.911Z,20.58
2023-03-06T22:09:46.569Z,20.75
2023-03-06T22:12:13.062Z,19.75
2023-03-06T22:14:39.669Z,20.10
2023-03-06T22:17:06.507Z,18.30
2023-03-06T22:19:32.966Z,18.73
2023-03-06T22:21:59.440Z,19.98
2023-03-06T22:24:28.572Z,20.00
2023-03-06T22:26:55.056Z,18.90
2023-03-06T22:29:21.473Z,18.90
2023-03-06T22:31:47.971Z,20.20
2023-03-06T22:34:18.124Z,18.77
2023-03-06T22:36:46.122Z,18.80
2023-03-06T22:39:13.224Z,19.00
2023-03-06T22:41:40.048Z,18.92
2023-03-06T22:44:10.458Z,19.75
2023-03-06T22:46:37.033Z,18.35
2023-03-06T22:49:03.719Z,18.80
2023-03-06T22:51:30.243Z,17.58
2023-03-06T22:53:56.887Z,17.67
2023-03-06T22:56:25.883Z,18.27
2023-03-06T22:58:52.354Z,17.13
2023-03-06T23:01:21.083Z,15.90
2023-03-06T23:03:50.052Z,17.40
2023-03-06T23:06:22.728Z,17.08
2023-03-06T23:08:54.274Z,17.23
2023-03-06T23:11:21.534Z,17.40
2023-03-06T23:13:48.040Z,17.52
2023-03-06T23:16:14.648Z,18.20
2023-03-06T23:18:41.287Z,16.17
2023-03-06T23:21:13.565Z,18.33
2023-03-06T23:23:40.569Z,17.00
2023-03-06T23:26:07.852Z,16.38
2023-03-06T23:28:35.002Z,17.27
2023-03-06T23:31:07.231Z,17.10
2023-03-06T23:33:33.991Z,17.48
2023-03-06T23:36:07.847Z,17.23
2023-03-06T23:38:34.721Z,16.77
2023-03-06T23:41:05.108Z,17.02
2023-03-06T23:43:31.918Z,17.00
2023-03-06T23:45:58.679Z,17.70
2023-03-06T23:48:25.293Z,17.25
2023-03-06T23:50:51.764Z,17.42
2023-03-06T23:53:18.413Z,17.23
2023-03-06T23:55:47.045Z,16.75
2023-03-06T23:58:14.305Z,17.10
